Etusivu
METAR-TAF:

METAR-TAF

Lentoasemat :

Batam, Indonesia

Leveyspiiri: 01-07-15N, Pituuspiiri: 104-07-07E, korkeus merenpinnasta: 38 m

Tämänhetkinen sää

Tämä raportti tehtiin 39 minuuttia sitten, kello 07.00 UTC
Tuuli 3 kn lännestä
Lämpötila 31°C
Kosteus 63%
Ilmanpaine 1011 hPa
Näkyvyys 10 km tai enemmän
Muutamia pilviä 1300 ft:n korkeudessa, Cumulonimbus.
Muutamia pilviä 1400 ft:n korkeudessa

METAR: WIDD 260700Z 27003KT 9999 FEW013CB FEW014 31/23 Q1011 RETS NOSIG RMK CB TO NW

Aika: 14:39 (07:39 UTC)

Sääennuste

Tämä raportti tehtiin 2 tuntia ja 39 minuuttia sitten, kello 05.00 UTC
Ennuste voimassa 26. päivästä klo 06 UTC - 27. päivään klo 06 UTC
Tuuli 6 kn idästä/kaakosta
Näkyvyys 10 km tai enemmän
Hajanaisia pilviä 1400 ft:n korkeudessa
Ajoittain
26. päivästä klo 06 UTC - 26. päivään klo 08 UTC
Näkyvyys: 4000 m
heikkoa sadetta

TAF: WIDD 260500Z 2606/2706 11006KT 9999 SCT014 TEMPO 2606/2608 4000 -RA

Säähavainnot ja -ennusteet yli 4000 lentoasemalta (METAR- ja TAF-raportit).

Käytössä olevat sääasemat on merkitty karttaan keltaisilla ja punaisilla pisteillä.

Aseta hiiri pisteen päälle nähdäksesi sääaseman nimen.

Klikkaa sitten nähdäksesi säähavainnot ja -ennusteet.

Kartan vaihtaminen: klikkaa mustalla rastilla varustettuja vihreitä pisteitä, niin voit zoomata sisään; viivalla varustettua vihreää pistettä, niin voit zoomata ulos tai vihreitä nuolia, niin pääset viereisille kartoille.


METAR-TAF: